KBEC/BEC METAR and TAF weather

Enter ICAO airport designator
Station Type Date Time Source
KBEC METAR 2019/08/19 01:55 UTC NOAA

KBEC 190155Z AUTO 07004KT 10SM CLR 28/22 A2989 RMK AO2 T02750222


Station Type Date Time Source
KBEC Decoded METAR 2019/08/19 01:55 UTC NOAA

Station name not available
Aug 18, 2019 - 09:55 PM EDT / 2019.08.19 0155 UTC
Wind: from the ENE (070 degrees) at 5 MPH (4 KT):0
Visibility: 10 mile(s):0
Sky conditions: clear
Temperature: 81.5 F (27.5 C)
Dew Point: 72.0 F (22.2 C)
Relative Humidity: 72%
Pressure (altimeter): 29.89 in. Hg (1012 hPa)
ob: KBEC 190155Z AUTO 07004KT 10SM CLR 28/22 A2989 RMK AO2 T02750222
cycle: 2

Station Type Date Time Source
KBEC TAF UTC NOAA

Error!

Example: see airport list